sensor_id;sensor_type;location;lat;lon;timestamp;pressure;altitude;pressure_sealevel;temperature;humidity
56052;BME280;41919;42.648;23.384;2022-08-18T00:01:42;94454.00;;;21.87;55.94
56052;BME280;41919;42.648;23.384;2022-08-18T00:04:09;94446.47;;;21.55;56.93
56052;BME280;41919;42.648;23.384;2022-08-18T00:06:35;94441.22;;;21.45;57.42
56052;BME280;41919;42.648;23.384;2022-08-18T00:09:04;94454.25;;;21.41;58.00
56052;BME280;41919;42.648;23.384;2022-08-18T00:11:32;94411.41;;;20.93;58.71
56052;BME280;41919;42.648;23.384;2022-08-18T00:13:59;94448.53;;;21.08;59.20
56052;BME280;41919;42.648;23.384;2022-08-18T00:16:24;94402.47;;;20.63;60.09
56052;BME280;41919;42.648;23.384;2022-08-18T00:18:49;94403.03;;;20.60;60.31
56052;BME280;41919;42.648;23.384;2022-08-18T00:21:16;94383.41;;;20.35;60.47
56052;BME280;41919;42.648;23.384;2022-08-18T00:23:42;94453.19;;;20.77;60.55
56052;BME280;41919;42.648;23.384;2022-08-18T00:26:07;94414.16;;;20.67;60.38
56052;BME280;41919;42.648;23.384;2022-08-18T00:28:32;94404.03;;;20.80;59.46
56052;BME280;41919;42.648;23.384;2022-08-18T00:30:58;94454.56;;;21.29;58.97
56052;BME280;41919;42.648;23.384;2022-08-18T00:33:23;94452.97;;;21.28;58.90
56052;BME280;41919;42.648;23.384;2022-08-18T00:35:49;94447.19;;;21.21;58.81
56052;BME280;41919;42.648;23.384;2022-08-18T00:38:14;94435.31;;;20.98;59.51
56052;BME280;41919;42.648;23.384;2022-08-18T00:40:43;94391.34;;;20.51;60.23
56052;BME280;41919;42.648;23.384;2022-08-18T00:43:20;94427.41;;;20.78;59.91
56052;BME280;41919;42.648;23.384;2022-08-18T00:45:47;94450.47;;;20.92;60.03
56052;BME280;41919;42.648;23.384;2022-08-18T00:48:13;94460.25;;;21.02;59.80
56052;BME280;41919;42.648;23.384;2022-08-18T00:50:43;94456.59;;;20.88;60.23
56052;BME280;41919;42.648;23.384;2022-08-18T00:55:48;94452.69;;;20.60;61.08
56052;BME280;41919;42.648;23.384;2022-08-18T00:58:22;94408.38;;;20.24;61.21
56052;BME280;41919;42.648;23.384;2022-08-18T01:00:50;94416.59;;;20.23;61.43
56052;BME280;41919;42.648;23.384;2022-08-18T01:03:17;94470.97;;;20.51;61.71
56052;BME280;41919;42.648;23.384;2022-08-18T01:05:49;94430.38;;;20.25;61.77
56052;BME280;41919;42.648;23.384;2022-08-18T01:08:17;94413.69;;;20.24;61.47
56052;BME280;41919;42.648;23.384;2022-08-18T01:10:43;94392.44;;;20.34;60.94
56052;BME280;41919;42.648;23.384;2022-08-18T01:13:09;94416.84;;;20.62;60.25
56052;BME280;41919;42.648;23.384;2022-08-18T01:15:36;94465.63;;;20.87;60.65
56052;BME280;41919;42.648;23.384;2022-08-18T01:18:09;94453.19;;;20.67;60.92
56052;BME280;41919;42.648;23.384;2022-08-18T01:20:59;94471.75;;;20.77;61.18
56052;BME280;41919;42.648;23.384;2022-08-18T01:23:47;94474.13;;;20.84;60.77
56052;BME280;41919;42.648;23.384;2022-08-18T01:26:15;94477.56;;;20.94;60.48
56052;BME280;41919;42.648;23.384;2022-08-18T01:28:43;94413.88;;;20.79;60.06
56052;BME280;41919;42.648;23.384;2022-08-18T01:31:11;94437.41;;;21.06;59.71
56052;BME280;41919;42.648;23.384;2022-08-18T01:33:41;94459.56;;;21.36;59.11
56052;BME280;41919;42.648;23.384;2022-08-18T01:36:17;94460.97;;;21.23;59.39
56052;BME280;41919;42.648;23.384;2022-08-18T01:38:45;94433.22;;;20.85;59.64
56052;BME280;41919;42.648;23.384;2022-08-18T01:41:11;94470.13;;;20.86;60.30
56052;BME280;41919;42.648;23.384;2022-08-18T01:43:37;94413.66;;;20.34;60.98
56052;BME280;41919;42.648;23.384;2022-08-18T01:46:03;94439.13;;;20.46;61.37
56052;BME280;41919;42.648;23.384;2022-08-18T01:48:34;94438.03;;;20.57;60.98
56052;BME280;41919;42.648;23.384;2022-08-18T01:51:04;94389.78;;;20.40;60.49
56052;BME280;41919;42.648;23.384;2022-08-18T01:53:30;94388.69;;;20.46;60.67
56052;BME280;41919;42.648;23.384;2022-08-18T01:55:55;94433.75;;;20.82;60.25
56052;BME280;41919;42.648;23.384;2022-08-18T01:58:21;94407.22;;;20.82;59.55
56052;BME280;41919;42.648;23.384;2022-08-18T02:00:53;94380.91;;;20.80;58.93
56052;BME280;41919;42.648;23.384;2022-08-18T02:03:23;94447.38;;;21.35;58.57
56052;BME280;41919;42.648;23.384;2022-08-18T02:05:55;94409.97;;;21.21;58.18
56052;BME280;41919;42.648;23.384;2022-08-18T02:08:24;94444.13;;;21.53;57.78
56052;BME280;41919;42.648;23.384;2022-08-18T02:10:50;94432.66;;;21.53;57.51
56052;BME280;41919;42.648;23.384;2022-08-18T02:13:15;94404.34;;;21.28;57.66
56052;BME280;41919;42.648;23.384;2022-08-18T02:15:40;94440.50;;;21.24;58.36
56052;BME280;41919;42.648;23.384;2022-08-18T02:18:13;94406.16;;;20.78;59.03
56052;BME280;41919;42.648;23.384;2022-08-18T02:20:39;94408.81;;;20.83;59.20
56052;BME280;41919;42.648;23.384;2022-08-18T02:23:05;94450.91;;;21.15;58.93
56052;BME280;41919;42.648;23.384;2022-08-18T02:25:30;94397.88;;;20.89;58.37
56052;BME280;41919;42.648;23.384;2022-08-18T02:27:56;94445.28;;;21.27;58.27
56052;BME280;41919;42.648;23.384;2022-08-18T02:30:22;94401.63;;;20.88;58.52
56052;BME280;41919;42.648;23.384;2022-08-18T02:32:47;94458.38;;;21.08;59.02
56052;BME280;41919;42.648;23.384;2022-08-18T02:35:13;94440.97;;;20.66;59.72
56052;BME280;41919;42.648;23.384;2022-08-18T02:37:39;94463.53;;;20.53;60.77
56052;BME280;41919;42.648;23.384;2022-08-18T02:40:05;94391.69;;;20.03;61.34
56052;BME280;41919;42.648;23.384;2022-08-18T02:42:31;94451.38;;;20.31;61.20
56052;BME280;41919;42.648;23.384;2022-08-18T02:44:56;94448.16;;;20.19;62.13
56052;BME280;41919;42.648;23.384;2022-08-18T02:47:22;94396.75;;;19.74;62.62
56052;BME280;41919;42.648;23.384;2022-08-18T02:49:48;94451.09;;;20.07;62.62
56052;BME280;41919;42.648;23.384;2022-08-18T02:52:14;94456.69;;;20.16;62.44
56052;BME280;41919;42.648;23.384;2022-08-18T02:54:39;94407.88;;;20.07;61.97
56052;BME280;41919;42.648;23.384;2022-08-18T02:57:09;94448.69;;;20.47;61.27
56052;BME280;41919;42.648;23.384;2022-08-18T02:59:35;94421.63;;;20.45;60.86
56052;BME280;41919;42.648;23.384;2022-08-18T03:02:03;94451.56;;;20.76;60.36
56052;BME280;41919;42.648;23.384;2022-08-18T03:04:30;94467.19;;;20.93;59.83
56052;BME280;41919;42.648;23.384;2022-08-18T03:07:00;94395.84;;;20.61;59.58
56052;BME280;41919;42.648;23.384;2022-08-18T03:09:27;94457.03;;;21.10;59.46
56052;BME280;41919;42.648;23.384;2022-08-18T03:11:53;94460.47;;;21.21;59.16
56052;BME280;41919;42.648;23.384;2022-08-18T03:14:19;94466.56;;;21.27;59.01
56052;BME280;41919;42.648;23.384;2022-08-18T03:16:47;94411.94;;;20.90;58.60
56052;BME280;41919;42.648;23.384;2022-08-18T03:19:13;94466.66;;;20.96;59.47
56052;BME280;41919;42.648;23.384;2022-08-18T03:21:44;94448.41;;;20.59;60.19
56052;BME280;41919;42.648;23.384;2022-08-18T03:24:11;94473.63;;;20.66;60.27
56052;BME280;41919;42.648;23.384;2022-08-18T03:26:40;94465.66;;;20.71;60.29
56052;BME280;41919;42.648;23.384;2022-08-18T03:29:07;94478.91;;;20.76;60.36
56052;BME280;41919;42.648;23.384;2022-08-18T03:31:33;94474.91;;;20.84;59.89
56052;BME280;41919;42.648;23.384;2022-08-18T03:34:04;94473.56;;;20.92;59.60
56052;BME280;41919;42.648;23.384;2022-08-18T03:36:31;94464.28;;;20.94;59.55
56052;BME280;41919;42.648;23.384;2022-08-18T03:38:58;94468.25;;;20.97;59.41
56052;BME280;41919;42.648;23.384;2022-08-18T03:41:27;94474.38;;;20.82;60.12
56052;BME280;41919;42.648;23.384;2022-08-18T03:43:54;94420.59;;;20.25;60.66
56052;BME280;41919;42.648;23.384;2022-08-18T03:46:21;94472.59;;;20.52;61.02
56052;BME280;41919;42.648;23.384;2022-08-18T03:48:47;94452.94;;;20.43;61.25
56052;BME280;41919;42.648;23.384;2022-08-18T03:51:19;94475.72;;;20.59;61.25
56052;BME280;41919;42.648;23.384;2022-08-18T03:53:47;94417.41;;;20.23;61.08
56052;BME280;41919;42.648;23.384;2022-08-18T03:56:18;94426.16;;;20.18;61.12
56052;BME280;41919;42.648;23.384;2022-08-18T03:58:53;94425.66;;;20.06;61.63
56052;BME280;41919;42.648;23.384;2022-08-18T04:01:22;94434.91;;;19.93;62.54
56052;BME280;41919;42.648;23.384;2022-08-18T04:03:51;94450.31;;;19.96;63.02
56052;BME280;41919;42.648;23.384;2022-08-18T04:06:21;94425.88;;;19.64;63.41
56052;BME280;41919;42.648;23.384;2022-08-18T04:08:51;94484.78;;;20.02;63.74
56052;BME280;41919;42.648;23.384;2022-08-18T04:11:17;94435.38;;;19.59;64.08
56052;BME280;41919;42.648;23.384;2022-08-18T04:13:42;94498.56;;;19.83;64.30
56052;BME280;41919;42.648;23.384;2022-08-18T04:16:08;94488.44;;;19.70;64.97
56052;BME280;41919;42.648;23.384;2022-08-18T04:18:34;94483.16;;;19.80;64.90
56052;BME280;41919;42.648;23.384;2022-08-18T04:21:09;94485.84;;;19.85;64.87
56052;BME280;41919;42.648;23.384;2022-08-18T04:23:36;94439.41;;;19.72;64.01
56052;BME280;41919;42.648;23.384;2022-08-18T04:26:03;94439.16;;;19.89;63.93
56052;BME280;41919;42.648;23.384;2022-08-18T04:28:29;94498.03;;;20.53;63.33
56052;BME280;41919;42.648;23.384;2022-08-18T04:30:55;94493.00;;;20.72;62.23
56052;BME280;41919;42.648;23.384;2022-08-18T04:33:25;94459.31;;;20.67;61.75
56052;BME280;41919;42.648;23.384;2022-08-18T04:35:51;94498.41;;;21.32;60.34
56052;BME280;41919;42.648;23.384;2022-08-18T04:38:16;94451.34;;;21.38;58.73
56052;BME280;41919;42.648;23.384;2022-08-18T04:40:41;94471.06;;;21.81;57.46
56052;BME280;41919;42.648;23.384;2022-08-18T04:43:08;94466.53;;;22.26;56.31
56052;BME280;41919;42.648;23.384;2022-08-18T04:45:41;94464.97;;;22.79;54.67
56052;BME280;41919;42.648;23.384;2022-08-18T04:48:06;94490.44;;;23.38;53.20
56052;BME280;41919;42.648;23.384;2022-08-18T04:50:32;94500.31;;;24.00;51.67
56052;BME280;41919;42.648;23.384;2022-08-18T04:52:57;94507.31;;;24.67;49.96
56052;BME280;41919;42.648;23.384;2022-08-18T04:55:48;94502.84;;;25.36;48.17
56052;BME280;41919;42.648;23.384;2022-08-18T04:58:14;94451.88;;;25.55;47.01
56052;BME280;41919;42.648;23.384;2022-08-18T05:00:43;94473.09;;;26.02;45.64
56052;BME280;41919;42.648;23.384;2022-08-18T05:03:09;94506.53;;;26.72;44.49
56052;BME280;41919;42.648;23.384;2022-08-18T05:05:35;94498.50;;;27.04;43.08
56052;BME280;41919;42.648;23.384;2022-08-18T05:08:01;94504.69;;;27.44;42.87
56052;BME280;41919;42.648;23.384;2022-08-18T05:10:27;94506.31;;;27.71;42.51
56052;BME280;41919;42.648;23.384;2022-08-18T05:12:52;94495.78;;;28.10;41.31
56052;BME280;41919;42.648;23.384;2022-08-18T05:15:18;94507.66;;;28.61;40.33
56052;BME280;41919;42.648;23.384;2022-08-18T05:17:43;94478.69;;;28.58;39.81
56052;BME280;41919;42.648;23.384;2022-08-18T05:20:09;94507.88;;;28.94;38.99
56052;BME280;41919;42.648;23.384;2022-08-18T05:22:40;94515.75;;;29.17;39.23
56052;BME280;41919;42.648;23.384;2022-08-18T05:25:10;94475.97;;;28.84;39.05
56052;BME280;41919;42.648;23.384;2022-08-18T05:27:39;94514.69;;;28.92;39.16
56052;BME280;41919;42.648;23.384;2022-08-18T05:30:07;94516.31;;;28.76;39.02
56052;BME280;41919;42.648;23.384;2022-08-18T05:32:38;94481.91;;;28.99;37.97
56052;BME280;41919;42.648;23.384;2022-08-18T05:35:14;94517.22;;;29.44;37.34
56052;BME280;41919;42.648;23.384;2022-08-18T05:40:13;94520.94;;;30.12;36.59
56052;BME280;41919;42.648;23.384;2022-08-18T05:42:39;94481.03;;;30.26;35.74
56052;BME280;41919;42.648;23.384;2022-08-18T05:45:14;94524.50;;;31.12;34.88
56052;BME280;41919;42.648;23.384;2022-08-18T05:47:41;94495.97;;;31.36;33.93
56052;BME280;41919;42.648;23.384;2022-08-18T05:50:09;94528.78;;;31.99;32.92
56052;BME280;41919;42.648;23.384;2022-08-18T05:52:57;94526.09;;;32.12;32.65
56052;BME280;41919;42.648;23.384;2022-08-18T05:55:34;94519.06;;;32.35;32.89
56052;BME280;41919;42.648;23.384;2022-08-18T05:58:33;94518.16;;;32.88;31.16
56052;BME280;41919;42.648;23.384;2022-08-18T06:01:03;94512.03;;;33.19;30.89
56052;BME280;41919;42.648;23.384;2022-08-18T06:03:43;94475.59;;;33.00;30.58
56052;BME280;41919;42.648;23.384;2022-08-18T06:06:17;94522.91;;;33.07;31.51
56052;BME280;41919;42.648;23.384;2022-08-18T06:09:08;94515.97;;;33.22;31.32
56052;BME280;41919;42.648;23.384;2022-08-18T06:11:42;94483.88;;;33.08;30.57
56052;BME280;41919;42.648;23.384;2022-08-18T06:14:08;94518.16;;;33.32;30.55
56052;BME280;41919;42.648;23.384;2022-08-18T06:22:05;94515.97;;;34.05;29.99
56052;BME280;41919;42.648;23.384;2022-08-18T06:30:00;94514.13;;;35.29;28.06
56052;BME280;41919;42.648;23.384;2022-08-18T06:35:30;94514.44;;;36.95;25.42
56052;BME280;41919;42.648;23.384;2022-08-18T06:43:33;94517.44;;;38.20;23.96
56052;BME280;41919;42.648;23.384;2022-08-18T06:46:05;94517.69;;;38.74;23.01
56052;BME280;41919;42.648;23.384;2022-08-18T06:51:11;94508.06;;;39.49;22.35
56052;BME280;41919;42.648;23.384;2022-08-18T06:53:54;94512.28;;;40.22;21.61
56052;BME280;41919;42.648;23.384;2022-08-18T06:56:34;94504.50;;;39.80;21.83
56052;BME280;41919;42.648;23.384;2022-08-18T06:59:21;94486.94;;;39.89;21.54
56052;BME280;41919;42.648;23.384;2022-08-18T07:01:52;94501.53;;;40.67;21.05
56052;BME280;41919;42.648;23.384;2022-08-18T07:07:28;94502.28;;;40.85;21.02
56052;BME280;41919;42.648;23.384;2022-08-18T07:09:54;94496.22;;;41.12;20.62
56052;BME280;41919;42.648;23.384;2022-08-18T07:12:23;94443.56;;;39.84;21.67
56052;BME280;41919;42.648;23.384;2022-08-18T07:14:52;94492.56;;;40.66;21.16
56052;BME280;41919;42.648;23.384;2022-08-18T07:17:25;94450.38;;;40.49;20.84
56052;BME280;41919;42.648;23.384;2022-08-18T07:20:03;94493.91;;;40.18;21.72
56052;BME280;41919;42.648;23.384;2022-08-18T07:22:29;94440.47;;;39.60;22.04
56052;BME280;41919;42.648;23.384;2022-08-18T07:24:57;94488.88;;;40.03;21.73
56052;BME280;41919;42.648;23.384;2022-08-18T07:27:45;94483.03;;;39.97;21.63
56052;BME280;41919;42.648;23.384;2022-08-18T07:32:52;94483.41;;;39.95;21.64
56052;BME280;41919;42.648;23.384;2022-08-18T07:35:27;94452.59;;;39.66;21.57
56052;BME280;41919;42.648;23.384;2022-08-18T07:38:08;94479.50;;;39.75;21.29
56052;BME280;41919;42.648;23.384;2022-08-18T07:40:40;94483.44;;;39.59;21.85
56052;BME280;41919;42.648;23.384;2022-08-18T07:43:15;94456.13;;;39.49;21.58
56052;BME280;41919;42.648;23.384;2022-08-18T07:45:44;94488.91;;;39.56;21.82
56052;BME280;41919;42.648;23.384;2022-08-18T07:50:49;94484.88;;;38.71;22.68
56052;BME280;41919;42.648;23.384;2022-08-18T07:53:42;94484.94;;;38.92;22.82
56052;BME280;41919;42.648;23.384;2022-08-18T07:59:00;94485.63;;;38.60;23.05
56052;BME280;41919;42.648;23.384;2022-08-18T08:01:43;94431.31;;;38.27;23.38
56052;BME280;41919;42.648;23.384;2022-08-18T08:04:34;94484.19;;;38.99;22.63
56052;BME280;41919;42.648;23.384;2022-08-18T08:07:13;94413.38;;;38.29;22.03
56052;BME280;41919;42.648;23.384;2022-08-18T08:33:32;94487.66;;;37.97;23.39
56052;BME280;41919;42.648;23.384;2022-08-18T08:36:17;94480.50;;;37.71;23.86
56052;BME280;41919;42.648;23.384;2022-08-18T08:38:49;94454.00;;;37.72;23.96
56052;BME280;41919;42.648;23.384;2022-08-18T08:41:41;94466.28;;;37.47;23.96
56052;BME280;41919;42.648;23.384;2022-08-18T08:44:24;94478.41;;;37.54;23.62
56052;BME280;41919;42.648;23.384;2022-08-18T08:49:42;94472.72;;;37.25;22.95
56052;BME280;41919;42.648;23.384;2022-08-18T08:55:15;94430.97;;;36.69;23.61
56052;BME280;41919;42.648;23.384;2022-08-18T09:00:25;94438.59;;;36.94;23.55
56052;BME280;41919;42.648;23.384;2022-08-18T09:05:43;94457.50;;;37.17;22.84
56052;BME280;41919;42.648;23.384;2022-08-18T09:08:26;94473.09;;;37.23;22.89
56052;BME280;41919;42.648;23.384;2022-08-18T09:24:52;94451.78;;;36.20;23.59
56052;BME280;41919;42.648;23.384;2022-08-18T09:29:56;94445.34;;;36.36;23.79
56052;BME280;41919;42.648;23.384;2022-08-18T09:40:46;94416.00;;;34.85;24.86
56052;BME280;41919;42.648;23.384;2022-08-18T09:54:21;94435.44;;;35.10;24.30
56052;BME280;41919;42.648;23.384;2022-08-18T10:02:03;94405.19;;;35.11;25.27
56052;BME280;41919;42.648;23.384;2022-08-18T10:04:37;94419.44;;;35.28;24.97
56052;BME280;41919;42.648;23.384;2022-08-18T10:07:16;94371.72;;;35.04;24.33
56052;BME280;41919;42.648;23.384;2022-08-18T10:12:10;94404.25;;;35.23;25.27
56052;BME280;41919;42.648;23.384;2022-08-18T10:17:24;94413.34;;;35.11;25.00
56052;BME280;41919;42.648;23.384;2022-08-18T10:20:22;94402.03;;;34.63;25.34
56052;BME280;41919;42.648;23.384;2022-08-18T10:22:50;94383.94;;;34.48;25.83
56052;BME280;41919;42.648;23.384;2022-08-18T10:25:39;94412.88;;;34.21;25.59
56052;BME280;41919;42.648;23.384;2022-08-18T10:28:08;94361.09;;;33.87;25.90
56052;BME280;41919;42.648;23.384;2022-08-18T10:33:10;94402.53;;;34.07;26.03
56052;BME280;41919;42.648;23.384;2022-08-18T10:40:30;94370.25;;;33.63;25.42
56052;BME280;41919;42.648;23.384;2022-08-18T10:43:15;94345.69;;;33.36;25.61
56052;BME280;41919;42.648;23.384;2022-08-18T10:45:51;94391.03;;;33.39;26.31
56052;BME280;41919;42.648;23.384;2022-08-18T10:48:31;94379.00;;;32.89;27.15
56052;BME280;41919;42.648;23.384;2022-08-18T10:56:39;94392.09;;;33.03;26.94
56052;BME280;41919;42.648;23.384;2022-08-18T11:04:33;94316.22;;;32.03;27.34
56052;BME280;41919;42.648;23.384;2022-08-18T11:07:11;94361.31;;;32.15;28.07
56052;BME280;41919;42.648;23.384;2022-08-18T11:09:40;94325.19;;;32.08;28.39
56052;BME280;41919;42.648;23.384;2022-08-18T11:12:06;94316.25;;;31.91;27.90
56052;BME280;41919;42.648;23.384;2022-08-18T11:14:57;94356.00;;;32.19;27.49
56052;BME280;41919;42.648;23.384;2022-08-18T11:20:20;94354.38;;;32.46;27.44
56052;BME280;41919;42.648;23.384;2022-08-18T11:22:53;94310.22;;;32.26;27.00
56052;BME280;41919;42.648;23.384;2022-08-18T11:25:34;94366.47;;;32.65;26.13
56052;BME280;41919;42.648;23.384;2022-08-18T11:28:01;94295.75;;;32.34;26.17
56052;BME280;41919;42.648;23.384;2022-08-18T11:30:33;94367.84;;;32.74;26.13
56052;BME280;41919;42.648;23.384;2022-08-18T11:33:02;94303.06;;;32.50;25.73
56052;BME280;41919;42.648;23.384;2022-08-18T11:35:45;94348.38;;;33.00;25.40
56052;BME280;41919;42.648;23.384;2022-08-18T11:38:12;94354.91;;;33.15;25.56
56052;BME280;41919;42.648;23.384;2022-08-18T11:40:41;94332.03;;;32.97;25.67
56052;BME280;41919;42.648;23.384;2022-08-18T11:58:58;94345.47;;;33.09;25.74
56052;BME280;41919;42.648;23.384;2022-08-18T12:04:08;94326.03;;;32.88;25.22
56052;BME280;41919;42.648;23.384;2022-08-18T12:06:36;94336.31;;;32.98;25.33
56052;BME280;41919;42.648;23.384;2022-08-18T12:09:11;94331.19;;;32.93;25.57
56052;BME280;41919;42.648;23.384;2022-08-18T12:11:49;94301.25;;;32.38;26.20
56052;BME280;41919;42.648;23.384;2022-08-18T12:14:19;94311.97;;;32.50;25.85
56052;BME280;41919;42.648;23.384;2022-08-18T12:16:45;94321.25;;;32.65;26.18
56052;BME280;41919;42.648;23.384;2022-08-18T12:19:12;94309.72;;;32.68;25.84
56052;BME280;41919;42.648;23.384;2022-08-18T12:21:44;94322.03;;;32.66;26.62
56052;BME280;41919;42.648;23.384;2022-08-18T12:24:23;94269.22;;;32.40;26.95
56052;BME280;41919;42.648;23.384;2022-08-18T12:26:49;94316.69;;;32.69;26.21
56052;BME280;41919;42.648;23.384;2022-08-18T12:29:16;94321.41;;;32.72;25.98
56052;BME280;41919;42.648;23.384;2022-08-18T12:31:46;94305.44;;;32.67;26.21
56052;BME280;41919;42.648;23.384;2022-08-18T12:34:11;94306.47;;;32.78;25.94
56052;BME280;41919;42.648;23.384;2022-08-18T12:36:38;94262.84;;;32.48;25.58
56052;BME280;41919;42.648;23.384;2022-08-18T12:39:04;94304.63;;;32.82;25.79
56052;BME280;41919;42.648;23.384;2022-08-18T12:41:29;94260.16;;;32.48;25.64
56052;BME280;41919;42.648;23.384;2022-08-18T12:43:55;94304.63;;;32.82;25.89
56052;BME280;41919;42.648;23.384;2022-08-18T12:46:20;94270.81;;;32.57;25.49
56052;BME280;41919;42.648;23.384;2022-08-18T12:48:46;94260.00;;;32.57;25.67
56052;BME280;41919;42.648;23.384;2022-08-18T12:51:13;94269.56;;;32.54;26.18
56052;BME280;41919;42.648;23.384;2022-08-18T12:53:40;94276.41;;;32.64;25.95
56052;BME280;41919;42.648;23.384;2022-08-18T12:56:29;94316.59;;;32.97;25.17
56052;BME280;41919;42.648;23.384;2022-08-18T12:58:57;94273.59;;;32.76;24.92
56052;BME280;41919;42.648;23.384;2022-08-18T13:01:23;94292.59;;;32.80;26.06
56052;BME280;41919;42.648;23.384;2022-08-18T13:03:52;94306.84;;;32.77;25.72
56052;BME280;41919;42.648;23.384;2022-08-18T13:06:20;94293.81;;;32.82;25.75
56052;BME280;41919;42.648;23.384;2022-08-18T13:08:47;94168.59;;;32.15;25.08
56052;BME280;41919;42.648;23.384;2022-08-18T13:11:14;94292.56;;;32.96;25.58
56052;BME280;41919;42.648;23.384;2022-08-18T13:13:42;94215.66;;;32.61;26.11
56052;BME280;41919;42.648;23.384;2022-08-18T13:16:09;94259.22;;;32.92;25.99
56052;BME280;41919;42.648;23.384;2022-08-18T13:18:35;94289.38;;;33.26;25.31
56052;BME280;41919;42.648;23.384;2022-08-18T13:21:01;94269.78;;;33.13;25.13
56052;BME280;41919;42.648;23.384;2022-08-18T13:23:28;94245.88;;;32.99;25.22
56052;BME280;41919;42.648;23.384;2022-08-18T13:25:55;94279.09;;;33.15;25.46
56052;BME280;41919;42.648;23.384;2022-08-18T13:28:22;94277.63;;;33.18;25.21
56052;BME280;41919;42.648;23.384;2022-08-18T13:30:48;94273.56;;;33.28;25.58
56052;BME280;41919;42.648;23.384;2022-08-18T13:33:16;94229.28;;;33.00;25.36
56052;BME280;41919;42.648;23.384;2022-08-18T13:35:43;94238.63;;;33.23;25.37
56052;BME280;41919;42.648;23.384;2022-08-18T13:38:09;94269.28;;;33.46;24.80
56052;BME280;41919;42.648;23.384;2022-08-18T13:40:36;94248.41;;;32.92;25.03
56052;BME280;41919;42.648;23.384;2022-08-18T13:43:02;94272.41;;;33.29;25.73
56052;BME280;41919;42.648;23.384;2022-08-18T13:45:28;94272.56;;;33.36;25.14
56052;BME280;41919;42.648;23.384;2022-08-18T13:47:54;94209.44;;;33.12;25.42
56052;BME280;41919;42.648;23.384;2022-08-18T13:50:19;94230.28;;;33.12;25.64
56052;BME280;41919;42.648;23.384;2022-08-18T13:52:45;94218.69;;;33.11;25.68
56052;BME280;41919;42.648;23.384;2022-08-18T13:55:15;94276.72;;;33.49;24.98
56052;BME280;41919;42.648;23.384;2022-08-18T13:57:42;94222.81;;;33.25;25.00
56052;BME280;41919;42.648;23.384;2022-08-18T14:00:19;94267.22;;;33.59;25.42
56052;BME280;41919;42.648;23.384;2022-08-18T14:02:47;94252.47;;;33.56;25.29
56052;BME280;41919;42.648;23.384;2022-08-18T14:05:15;94221.97;;;33.40;24.93
56052;BME280;41919;42.648;23.384;2022-08-18T14:07:41;94260.59;;;33.56;25.19
56052;BME280;41919;42.648;23.384;2022-08-18T14:10:08;94219.75;;;33.26;25.41
56052;BME280;41919;42.648;23.384;2022-08-18T14:12:35;94255.69;;;33.43;25.08
56052;BME280;41919;42.648;23.384;2022-08-18T14:15:04;94263.88;;;33.46;24.61
56052;BME280;41919;42.648;23.384;2022-08-18T14:17:32;94252.22;;;33.07;25.29
56052;BME280;41919;42.648;23.384;2022-08-18T14:19:59;94217.44;;;32.89;24.92
56052;BME280;41919;42.648;23.384;2022-08-18T14:22:43;94249.81;;;33.21;25.25
56052;BME280;41919;42.648;23.384;2022-08-18T14:25:28;94248.13;;;33.13;25.04
56052;BME280;41919;42.648;23.384;2022-08-18T14:28:13;94207.31;;;32.86;25.19
56052;BME280;41919;42.648;23.384;2022-08-18T14:30:41;94249.75;;;33.17;25.85
56052;BME280;41919;42.648;23.384;2022-08-18T14:33:07;94197.47;;;32.78;25.61
56052;BME280;41919;42.648;23.384;2022-08-18T14:35:34;94247.16;;;33.05;24.98
56052;BME280;41919;42.648;23.384;2022-08-18T14:38:00;94228.81;;;32.98;25.71
56052;BME280;41919;42.648;23.384;2022-08-18T14:40:26;94243.25;;;33.03;25.69
56052;BME280;41919;42.648;23.384;2022-08-18T14:42:52;94209.97;;;32.67;25.18
56052;BME280;41919;42.648;23.384;2022-08-18T14:45:17;94242.31;;;32.95;25.36
56052;BME280;41919;42.648;23.384;2022-08-18T14:47:43;94194.09;;;32.65;25.42
56052;BME280;41919;42.648;23.384;2022-08-18T14:50:09;94231.53;;;32.63;26.50
56052;BME280;41919;42.648;23.384;2022-08-18T14:52:38;94188.28;;;32.31;26.12
56052;BME280;41919;42.648;23.384;2022-08-18T14:55:04;94187.88;;;32.13;25.99
56052;BME280;41919;42.648;23.384;2022-08-18T14:57:29;94247.06;;;32.34;26.22
56052;BME280;41919;42.648;23.384;2022-08-18T14:59:55;94198.31;;;31.99;26.28
56052;BME280;41919;42.648;23.384;2022-08-18T15:02:20;94183.66;;;32.00;26.43
56052;BME280;41919;42.648;23.384;2022-08-18T15:04:46;94209.03;;;32.27;26.17
56052;BME280;41919;42.648;23.384;2022-08-18T15:07:11;94241.66;;;32.50;26.09
56052;BME280;41919;42.648;23.384;2022-08-18T15:09:37;94243.66;;;32.53;26.23
56052;BME280;41919;42.648;23.384;2022-08-18T15:12:03;94231.72;;;32.38;26.30
56052;BME280;41919;42.648;23.384;2022-08-18T15:14:31;94204.16;;;32.33;26.10
56052;BME280;41919;42.648;23.384;2022-08-18T15:16:57;94194.91;;;32.18;26.15
56052;BME280;41919;42.648;23.384;2022-08-18T15:19:23;94259.81;;;32.50;26.76
56052;BME280;41919;42.648;23.384;2022-08-18T15:21:49;94215.25;;;32.28;26.49
56052;BME280;41919;42.648;23.384;2022-08-18T15:24:39;94251.16;;;32.44;27.05
56052;BME280;41919;42.648;23.384;2022-08-18T15:27:22;94196.75;;;32.14;26.69
56052;BME280;41919;42.648;23.384;2022-08-18T15:29:48;94232.44;;;32.35;27.08
56052;BME280;41919;42.648;23.384;2022-08-18T15:32:13;94256.03;;;32.54;26.81
56052;BME280;41919;42.648;23.384;2022-08-18T15:34:39;94251.78;;;32.37;26.65
56052;BME280;41919;42.648;23.384;2022-08-18T15:37:07;94200.66;;;32.00;26.88
56052;BME280;41919;42.648;23.384;2022-08-18T15:39:33;94247.84;;;32.35;27.36
56052;BME280;41919;42.648;23.384;2022-08-18T15:41:58;94245.66;;;32.40;27.60
56052;BME280;41919;42.648;23.384;2022-08-18T15:44:24;94228.94;;;32.19;27.60